sensor_id;sensor_type;location;lat;lon;timestamp;P1;durP1;ratioP1;P2;durP2;ratioP2
27161;SDS011;54464;50.558;9.704;2022-09-09T00:00:41;2.80;;;1.20;;
27161;SDS011;54464;50.558;9.704;2022-09-09T00:03:27;2.83;;;1.23;;
27161;SDS011;54464;50.558;9.704;2022-09-09T00:06:10;2.97;;;1.30;;
27161;SDS011;54464;50.558;9.704;2022-09-09T00:11:26;2.07;;;1.00;;
27161;SDS011;54464;50.558;9.704;2022-09-09T00:13:59;1.93;;;0.93;;
27161;SDS011;54464;50.558;9.704;2022-09-09T00:16:29;2.27;;;1.00;;
27161;SDS011;54464;50.558;9.704;2022-09-09T00:19:01;3.43;;;1.20;;
27161;SDS011;54464;50.558;9.704;2022-09-09T00:21:45;4.47;;;1.27;;
27161;SDS011;54464;50.558;9.704;2022-09-09T00:24:24;3.40;;;1.00;;
27161;SDS011;54464;50.558;9.704;2022-09-09T00:27:09;3.27;;;1.27;;
27161;SDS011;54464;50.558;9.704;2022-09-09T00:29:45;2.70;;;1.13;;
27161;SDS011;54464;50.558;9.704;2022-09-09T00:32:19;3.63;;;1.17;;
27161;SDS011;54464;50.558;9.704;2022-09-09T00:37:20;2.73;;;1.10;;
27161;SDS011;54464;50.558;9.704;2022-09-09T00:39:50;2.80;;;1.10;;
27161;SDS011;54464;50.558;9.704;2022-09-09T00:42:24;3.03;;;1.03;;
27161;SDS011;54464;50.558;9.704;2022-09-09T00:45:02;2.20;;;1.00;;
27161;SDS011;54464;50.558;9.704;2022-09-09T00:52:47;2.60;;;0.90;;
27161;SDS011;54464;50.558;9.704;2022-09-09T00:55:28;1.80;;;0.90;;
27161;SDS011;54464;50.558;9.704;2022-09-09T00:58:10;3.60;;;0.83;;
27161;SDS011;54464;50.558;9.704;2022-09-09T01:00:43;3.77;;;1.03;;
27161;SDS011;54464;50.558;9.704;2022-09-09T01:09:08;2.40;;;1.00;;
27161;SDS011;54464;50.558;9.704;2022-09-09T01:12:07;3.50;;;1.00;;
27161;SDS011;54464;50.558;9.704;2022-09-09T01:14:42;2.97;;;0.90;;
27161;SDS011;54464;50.558;9.704;2022-09-09T01:27:19;1.83;;;0.80;;
27161;SDS011;54464;50.558;9.704;2022-09-09T01:29:46;2.10;;;1.00;;
27161;SDS011;54464;50.558;9.704;2022-09-09T01:35:09;3.30;;;1.10;;
27161;SDS011;54464;50.558;9.704;2022-09-09T01:37:39;3.27;;;1.00;;
27161;SDS011;54464;50.558;9.704;2022-09-09T01:40:05;1.80;;;0.80;;
27161;SDS011;54464;50.558;9.704;2022-09-09T01:42:31;2.73;;;0.80;;
27161;SDS011;54464;50.558;9.704;2022-09-09T01:44:57;2.17;;;1.00;;
27161;SDS011;54464;50.558;9.704;2022-09-09T01:47:23;2.17;;;0.80;;
27161;SDS011;54464;50.558;9.704;2022-09-09T01:49:49;2.97;;;0.90;;
27161;SDS011;54464;50.558;9.704;2022-09-09T01:52:15;1.33;;;0.83;;
27161;SDS011;54464;50.558;9.704;2022-09-09T01:54:41;2.40;;;1.00;;
27161;SDS011;54464;50.558;9.704;2022-09-09T01:59:44;2.47;;;0.97;;
27161;SDS011;54464;50.558;9.704;2022-09-09T02:02:18;3.23;;;1.13;;
27161;SDS011;54464;50.558;9.704;2022-09-09T02:08:05;3.57;;;1.10;;
27161;SDS011;54464;50.558;9.704;2022-09-09T02:10:33;2.40;;;0.97;;
27161;SDS011;54464;50.558;9.704;2022-09-09T02:13:13;1.97;;;0.90;;
27161;SDS011;54464;50.558;9.704;2022-09-09T02:15:52;2.53;;;1.10;;
27161;SDS011;54464;50.558;9.704;2022-09-09T02:18:27;3.07;;;1.10;;
27161;SDS011;54464;50.558;9.704;2022-09-09T02:21:00;2.73;;;0.90;;
27161;SDS011;54464;50.558;9.704;2022-09-09T02:23:27;2.73;;;1.30;;
27161;SDS011;54464;50.558;9.704;2022-09-09T02:25:54;2.37;;;1.00;;
27161;SDS011;54464;50.558;9.704;2022-09-09T02:28:23;4.43;;;1.00;;
27161;SDS011;54464;50.558;9.704;2022-09-09T02:30:51;1.77;;;0.90;;
27161;SDS011;54464;50.558;9.704;2022-09-09T02:33:21;2.57;;;1.00;;
27161;SDS011;54464;50.558;9.704;2022-09-09T02:35:51;3.37;;;1.00;;
27161;SDS011;54464;50.558;9.704;2022-09-09T02:38:19;3.00;;;1.00;;
27161;SDS011;54464;50.558;9.704;2022-09-09T02:40:47;1.77;;;1.00;;
27161;SDS011;54464;50.558;9.704;2022-09-09T02:43:14;2.63;;;1.00;;
27161;SDS011;54464;50.558;9.704;2022-09-09T02:45:42;3.13;;;1.13;;
27161;SDS011;54464;50.558;9.704;2022-09-09T02:48:36;2.33;;;1.00;;
27161;SDS011;54464;50.558;9.704;2022-09-09T02:51:24;3.03;;;1.17;;
27161;SDS011;54464;50.558;9.704;2022-09-09T02:54:24;2.07;;;1.00;;
27161;SDS011;54464;50.558;9.704;2022-09-09T02:56:55;2.47;;;1.20;;
27161;SDS011;54464;50.558;9.704;2022-09-09T02:59:44;4.57;;;1.30;;
27161;SDS011;54464;50.558;9.704;2022-09-09T03:02:11;2.10;;;1.00;;
27161;SDS011;54464;50.558;9.704;2022-09-09T03:04:38;2.37;;;1.30;;
27161;SDS011;54464;50.558;9.704;2022-09-09T03:09:39;2.57;;;1.00;;
27161;SDS011;54464;50.558;9.704;2022-09-09T03:17:16;2.10;;;0.90;;
27161;SDS011;54464;50.558;9.704;2022-09-09T03:19:42;2.60;;;1.07;;
27161;SDS011;54464;50.558;9.704;2022-09-09T03:22:09;4.50;;;1.33;;
27161;SDS011;54464;50.558;9.704;2022-09-09T03:24:36;2.77;;;0.90;;
27161;SDS011;54464;50.558;9.704;2022-09-09T03:27:02;3.20;;;1.30;;
27161;SDS011;54464;50.558;9.704;2022-09-09T03:29:31;2.73;;;1.03;;
27161;SDS011;54464;50.558;9.704;2022-09-09T03:31:59;3.17;;;0.97;;
27161;SDS011;54464;50.558;9.704;2022-09-09T03:34:25;2.77;;;1.00;;
27161;SDS011;54464;50.558;9.704;2022-09-09T03:36:51;2.63;;;1.17;;
27161;SDS011;54464;50.558;9.704;2022-09-09T03:39:16;2.50;;;0.90;;
27161;SDS011;54464;50.558;9.704;2022-09-09T03:41:42;2.47;;;1.10;;
27161;SDS011;54464;50.558;9.704;2022-09-09T03:44:11;2.23;;;0.90;;
27161;SDS011;54464;50.558;9.704;2022-09-09T03:46:36;1.60;;;1.00;;
27161;SDS011;54464;50.558;9.704;2022-09-09T03:49:03;3.53;;;0.90;;
27161;SDS011;54464;50.558;9.704;2022-09-09T03:51:29;4.03;;;1.20;;
27161;SDS011;54464;50.558;9.704;2022-09-09T03:53:55;3.17;;;1.10;;
27161;SDS011;54464;50.558;9.704;2022-09-09T03:56:23;3.83;;;1.30;;
27161;SDS011;54464;50.558;9.704;2022-09-09T03:58:49;2.00;;;1.00;;
27161;SDS011;54464;50.558;9.704;2022-09-09T04:01:14;2.80;;;0.80;;
27161;SDS011;54464;50.558;9.704;2022-09-09T04:03:42;3.13;;;1.10;;
27161;SDS011;54464;50.558;9.704;2022-09-09T04:06:10;2.50;;;0.70;;
27161;SDS011;54464;50.558;9.704;2022-09-09T04:08:38;2.27;;;1.10;;
27161;SDS011;54464;50.558;9.704;2022-09-09T04:11:05;2.30;;;1.00;;
27161;SDS011;54464;50.558;9.704;2022-09-09T04:13:31;3.80;;;1.00;;
27161;SDS011;54464;50.558;9.704;2022-09-09T04:15:59;2.07;;;1.03;;
27161;SDS011;54464;50.558;9.704;2022-09-09T04:18:25;2.00;;;0.90;;
27161;SDS011;54464;50.558;9.704;2022-09-09T04:20:53;4.27;;;1.20;;
27161;SDS011;54464;50.558;9.704;2022-09-09T04:23:22;3.60;;;1.20;;
27161;SDS011;54464;50.558;9.704;2022-09-09T04:25:52;3.27;;;1.17;;
27161;SDS011;54464;50.558;9.704;2022-09-09T04:28:20;2.93;;;1.20;;
27161;SDS011;54464;50.558;9.704;2022-09-09T04:30:47;2.13;;;1.10;;
27161;SDS011;54464;50.558;9.704;2022-09-09T04:33:13;3.60;;;1.10;;
27161;SDS011;54464;50.558;9.704;2022-09-09T04:35:43;1.87;;;0.90;;
27161;SDS011;54464;50.558;9.704;2022-09-09T04:38:19;3.97;;;1.10;;
27161;SDS011;54464;50.558;9.704;2022-09-09T04:40:48;4.27;;;1.30;;
27161;SDS011;54464;50.558;9.704;2022-09-09T04:43:16;3.43;;;1.20;;
27161;SDS011;54464;50.558;9.704;2022-09-09T04:45:44;2.93;;;1.23;;
27161;SDS011;54464;50.558;9.704;2022-09-09T04:48:12;4.07;;;1.10;;
27161;SDS011;54464;50.558;9.704;2022-09-09T04:50:38;2.67;;;1.30;;
27161;SDS011;54464;50.558;9.704;2022-09-09T04:53:06;3.13;;;1.20;;
27161;SDS011;54464;50.558;9.704;2022-09-09T04:55:32;2.47;;;1.17;;
27161;SDS011;54464;50.558;9.704;2022-09-09T04:58:03;2.00;;;0.90;;
27161;SDS011;54464;50.558;9.704;2022-09-09T05:00:30;2.47;;;1.13;;
27161;SDS011;54464;50.558;9.704;2022-09-09T05:02:56;2.83;;;1.07;;
27161;SDS011;54464;50.558;9.704;2022-09-09T05:05:21;4.13;;;1.20;;
27161;SDS011;54464;50.558;9.704;2022-09-09T05:07:47;2.77;;;1.20;;
27161;SDS011;54464;50.558;9.704;2022-09-09T05:10:13;3.33;;;1.23;;
27161;SDS011;54464;50.558;9.704;2022-09-09T05:12:40;4.07;;;1.17;;
27161;SDS011;54464;50.558;9.704;2022-09-09T05:15:05;4.60;;;1.53;;
27161;SDS011;54464;50.558;9.704;2022-09-09T05:17:32;2.50;;;1.10;;
27161;SDS011;54464;50.558;9.704;2022-09-09T05:19:58;2.73;;;1.30;;
27161;SDS011;54464;50.558;9.704;2022-09-09T05:22:24;4.40;;;1.50;;
27161;SDS011;54464;50.558;9.704;2022-09-09T05:24:50;4.17;;;1.33;;
27161;SDS011;54464;50.558;9.704;2022-09-09T05:27:16;5.63;;;1.40;;
27161;SDS011;54464;50.558;9.704;2022-09-09T05:29:44;3.43;;;1.80;;
27161;SDS011;54464;50.558;9.704;2022-09-09T05:32:10;4.93;;;1.40;;
27161;SDS011;54464;50.558;9.704;2022-09-09T05:34:36;3.37;;;1.37;;
27161;SDS011;54464;50.558;9.704;2022-09-09T05:37:15;4.10;;;1.43;;
27161;SDS011;54464;50.558;9.704;2022-09-09T05:39:41;4.70;;;1.40;;
27161;SDS011;54464;50.558;9.704;2022-09-09T05:42:07;3.17;;;1.47;;
27161;SDS011;54464;50.558;9.704;2022-09-09T05:44:33;4.33;;;1.70;;
27161;SDS011;54464;50.558;9.704;2022-09-09T05:46:58;4.77;;;1.70;;
27161;SDS011;54464;50.558;9.704;2022-09-09T05:49:24;4.43;;;1.40;;
27161;SDS011;54464;50.558;9.704;2022-09-09T05:51:50;2.87;;;1.37;;
27161;SDS011;54464;50.558;9.704;2022-09-09T05:54:16;2.83;;;1.20;;
27161;SDS011;54464;50.558;9.704;2022-09-09T05:56:42;2.90;;;1.67;;
27161;SDS011;54464;50.558;9.704;2022-09-09T05:59:08;4.33;;;1.50;;
27161;SDS011;54464;50.558;9.704;2022-09-09T06:01:35;4.20;;;1.53;;
27161;SDS011;54464;50.558;9.704;2022-09-09T06:04:01;2.70;;;1.40;;
27161;SDS011;54464;50.558;9.704;2022-09-09T06:06:32;3.07;;;1.43;;
27161;SDS011;54464;50.558;9.704;2022-09-09T06:09:05;3.27;;;1.50;;
27161;SDS011;54464;50.558;9.704;2022-09-09T06:11:34;3.37;;;1.40;;
27161;SDS011;54464;50.558;9.704;2022-09-09T06:14:01;2.67;;;1.17;;
27161;SDS011;54464;50.558;9.704;2022-09-09T06:16:27;2.70;;;1.40;;
27161;SDS011;54464;50.558;9.704;2022-09-09T06:18:54;4.50;;;1.40;;
27161;SDS011;54464;50.558;9.704;2022-09-09T06:21:22;2.13;;;1.40;;
27161;SDS011;54464;50.558;9.704;2022-09-09T06:23:51;3.00;;;1.20;;
27161;SDS011;54464;50.558;9.704;2022-09-09T06:28:49;1.80;;;1.10;;
27161;SDS011;54464;50.558;9.704;2022-09-09T06:31:18;3.27;;;1.00;;
27161;SDS011;54464;50.558;9.704;2022-09-09T06:33:48;3.20;;;1.40;;
27161;SDS011;54464;50.558;9.704;2022-09-09T06:36:17;3.20;;;1.40;;
27161;SDS011;54464;50.558;9.704;2022-09-09T06:38:45;2.23;;;1.30;;
27161;SDS011;54464;50.558;9.704;2022-09-09T06:41:11;3.00;;;1.20;;
27161;SDS011;54464;50.558;9.704;2022-09-09T06:43:39;2.87;;;1.10;;
27161;SDS011;54464;50.558;9.704;2022-09-09T06:46:12;3.93;;;1.57;;
27161;SDS011;54464;50.558;9.704;2022-09-09T06:48:46;3.77;;;1.30;;
27161;SDS011;54464;50.558;9.704;2022-09-09T06:51:19;3.23;;;1.30;;
27161;SDS011;54464;50.558;9.704;2022-09-09T06:53:49;3.40;;;1.50;;
27161;SDS011;54464;50.558;9.704;2022-09-09T06:58:50;4.27;;;1.47;;
27161;SDS011;54464;50.558;9.704;2022-09-09T07:01:18;4.53;;;1.83;;
27161;SDS011;54464;50.558;9.704;2022-09-09T07:03:46;3.50;;;1.30;;
27161;SDS011;54464;50.558;9.704;2022-09-09T07:06:16;2.80;;;1.20;;
27161;SDS011;54464;50.558;9.704;2022-09-09T07:08:47;3.03;;;1.10;;
27161;SDS011;54464;50.558;9.704;2022-09-09T07:11:21;4.87;;;1.53;;
27161;SDS011;54464;50.558;9.704;2022-09-09T07:13:48;2.70;;;1.50;;
27161;SDS011;54464;50.558;9.704;2022-09-09T07:16:16;2.17;;;1.30;;
27161;SDS011;54464;50.558;9.704;2022-09-09T07:18:43;4.00;;;1.53;;
27161;SDS011;54464;50.558;9.704;2022-09-09T07:21:09;2.50;;;1.30;;
27161;SDS011;54464;50.558;9.704;2022-09-09T07:23:37;5.47;;;1.67;;
27161;SDS011;54464;50.558;9.704;2022-09-09T07:26:14;2.17;;;1.50;;
27161;SDS011;54464;50.558;9.704;2022-09-09T07:28:42;3.47;;;1.30;;
27161;SDS011;54464;50.558;9.704;2022-09-09T07:31:14;3.67;;;1.67;;
27161;SDS011;54464;50.558;9.704;2022-09-09T07:33:41;4.77;;;1.53;;
27161;SDS011;54464;50.558;9.704;2022-09-09T07:38:47;3.23;;;1.60;;
27161;SDS011;54464;50.558;9.704;2022-09-09T07:41:19;4.00;;;1.63;;
27161;SDS011;54464;50.558;9.704;2022-09-09T07:43:57;3.27;;;1.53;;
27161;SDS011;54464;50.558;9.704;2022-09-09T07:46:24;4.10;;;1.70;;
27161;SDS011;54464;50.558;9.704;2022-09-09T07:48:51;5.63;;;1.80;;
27161;SDS011;54464;50.558;9.704;2022-09-09T07:51:20;5.33;;;2.20;;
27161;SDS011;54464;50.558;9.704;2022-09-09T07:53:58;3.77;;;1.70;;
27161;SDS011;54464;50.558;9.704;2022-09-09T07:56:26;2.87;;;1.70;;
27161;SDS011;54464;50.558;9.704;2022-09-09T07:58:53;3.90;;;1.53;;
27161;SDS011;54464;50.558;9.704;2022-09-09T08:01:24;2.73;;;1.40;;
27161;SDS011;54464;50.558;9.704;2022-09-09T08:03:59;3.73;;;1.40;;
27161;SDS011;54464;50.558;9.704;2022-09-09T08:06:29;2.27;;;1.37;;
27161;SDS011;54464;50.558;9.704;2022-09-09T08:08:58;3.60;;;1.50;;
27161;SDS011;54464;50.558;9.704;2022-09-09T08:11:25;2.90;;;1.30;;
27161;SDS011;54464;50.558;9.704;2022-09-09T08:13:52;2.67;;;1.60;;
27161;SDS011;54464;50.558;9.704;2022-09-09T08:16:19;8.57;;;1.90;;
27161;SDS011;54464;50.558;9.704;2022-09-09T08:18:50;4.30;;;1.60;;
27161;SDS011;54464;50.558;9.704;2022-09-09T08:21:18;3.47;;;1.30;;
27161;SDS011;54464;50.558;9.704;2022-09-09T08:23:46;3.97;;;1.60;;
27161;SDS011;54464;50.558;9.704;2022-09-09T08:26:17;5.93;;;1.37;;
27161;SDS011;54464;50.558;9.704;2022-09-09T08:28:47;2.37;;;1.27;;
27161;SDS011;54464;50.558;9.704;2022-09-09T08:31:16;2.50;;;1.10;;
27161;SDS011;54464;50.558;9.704;2022-09-09T08:33:47;3.40;;;1.30;;
27161;SDS011;54464;50.558;9.704;2022-09-09T08:36:15;2.83;;;1.73;;
27161;SDS011;54464;50.558;9.704;2022-09-09T08:38:42;4.27;;;1.50;;
27161;SDS011;54464;50.558;9.704;2022-09-09T08:44:06;3.17;;;1.70;;
27161;SDS011;54464;50.558;9.704;2022-09-09T08:52:02;7.20;;;1.87;;
27161;SDS011;54464;50.558;9.704;2022-09-09T08:54:35;4.60;;;1.67;;
27161;SDS011;54464;50.558;9.704;2022-09-09T08:57:01;3.77;;;1.30;;
27161;SDS011;54464;50.558;9.704;2022-09-09T08:59:33;5.37;;;1.80;;
27161;SDS011;54464;50.558;9.704;2022-09-09T09:02:33;2.43;;;1.50;;
27161;SDS011;54464;50.558;9.704;2022-09-09T09:05:35;3.90;;;1.90;;
27161;SDS011;54464;50.558;9.704;2022-09-09T09:10:44;4.23;;;1.77;;
27161;SDS011;54464;50.558;9.704;2022-09-09T09:15:43;5.97;;;2.13;;
27161;SDS011;54464;50.558;9.704;2022-09-09T09:18:12;6.93;;;1.80;;
27161;SDS011;54464;50.558;9.704;2022-09-09T09:20:41;4.43;;;1.60;;
27161;SDS011;54464;50.558;9.704;2022-09-09T09:23:23;3.27;;;1.70;;
27161;SDS011;54464;50.558;9.704;2022-09-09T09:25:52;3.87;;;1.80;;
27161;SDS011;54464;50.558;9.704;2022-09-09T09:28:24;2.63;;;1.50;;
27161;SDS011;54464;50.558;9.704;2022-09-09T09:30:55;5.73;;;1.90;;
27161;SDS011;54464;50.558;9.704;2022-09-09T09:33:27;4.37;;;1.70;;
27161;SDS011;54464;50.558;9.704;2022-09-09T09:35:59;4.30;;;1.87;;
27161;SDS011;54464;50.558;9.704;2022-09-09T09:38:26;3.87;;;1.70;;
27161;SDS011;54464;50.558;9.704;2022-09-09T09:40:56;3.77;;;1.50;;
27161;SDS011;54464;50.558;9.704;2022-09-09T09:45:59;5.73;;;1.93;;
27161;SDS011;54464;50.558;9.704;2022-09-09T09:48:26;3.43;;;1.87;;
27161;SDS011;54464;50.558;9.704;2022-09-09T09:50:56;3.60;;;1.77;;
27161;SDS011;54464;50.558;9.704;2022-09-09T09:53:32;5.10;;;1.63;;
27161;SDS011;54464;50.558;9.704;2022-09-09T09:56:01;4.27;;;1.57;;
27161;SDS011;54464;50.558;9.704;2022-09-09T09:58:49;3.50;;;1.33;;
27161;SDS011;54464;50.558;9.704;2022-09-09T10:01:23;5.93;;;1.80;;
27161;SDS011;54464;50.558;9.704;2022-09-09T10:04:02;5.37;;;1.77;;
27161;SDS011;54464;50.558;9.704;2022-09-09T10:06:46;3.63;;;1.27;;
27161;SDS011;54464;50.558;9.704;2022-09-09T10:09:28;3.43;;;1.50;;
27161;SDS011;54464;50.558;9.704;2022-09-09T10:22:46;5.03;;;1.33;;
27161;SDS011;54464;50.558;9.704;2022-09-09T10:33:57;3.60;;;1.33;;
27161;SDS011;54464;50.558;9.704;2022-09-09T10:36:46;3.73;;;1.33;;
27161;SDS011;54464;50.558;9.704;2022-09-09T10:47:28;3.43;;;1.67;;
27161;SDS011;54464;50.558;9.704;2022-09-09T10:52:46;5.13;;;1.80;;
27161;SDS011;54464;50.558;9.704;2022-09-09T10:55:35;5.10;;;1.80;;
27161;SDS011;54464;50.558;9.704;2022-09-09T10:58:09;5.33;;;1.80;;
27161;SDS011;54464;50.558;9.704;2022-09-09T11:00:40;6.87;;;1.70;;
27161;SDS011;54464;50.558;9.704;2022-09-09T11:03:27;5.50;;;1.70;;
27161;SDS011;54464;50.558;9.704;2022-09-09T11:06:00;3.93;;;1.50;;
27161;SDS011;54464;50.558;9.704;2022-09-09T11:08:31;2.07;;;1.17;;
27161;SDS011;54464;50.558;9.704;2022-09-09T11:19:21;4.00;;;1.53;;
27161;SDS011;54464;50.558;9.704;2022-09-09T11:21:50;4.13;;;1.90;;
27161;SDS011;54464;50.558;9.704;2022-09-09T11:24:40;5.30;;;1.47;;
27161;SDS011;54464;50.558;9.704;2022-09-09T11:30:02;3.80;;;1.23;;
27161;SDS011;54464;50.558;9.704;2022-09-09T11:38:59;2.37;;;1.57;;
27161;SDS011;54464;50.558;9.704;2022-09-09T11:41:40;5.20;;;1.20;;
27161;SDS011;54464;50.558;9.704;2022-09-09T11:44:10;2.33;;;1.20;;
27161;SDS011;54464;50.558;9.704;2022-09-09T11:46:38;5.00;;;1.40;;
27161;SDS011;54464;50.558;9.704;2022-09-09T11:49:06;3.10;;;1.23;;
27161;SDS011;54464;50.558;9.704;2022-09-09T11:51:51;3.23;;;1.30;;
27161;SDS011;54464;50.558;9.704;2022-09-09T11:54:32;4.17;;;1.30;;
27161;SDS011;54464;50.558;9.704;2022-09-09T11:59:53;3.13;;;1.20;;
27161;SDS011;54464;50.558;9.704;2022-09-09T12:02:23;2.70;;;1.07;;
27161;SDS011;54464;50.558;9.704;2022-09-09T12:05:02;3.07;;;1.63;;
27161;SDS011;54464;50.558;9.704;2022-09-09T12:07:35;3.63;;;1.20;;
27161;SDS011;54464;50.558;9.704;2022-09-09T12:15:48;3.03;;;1.57;;
27161;SDS011;54464;50.558;9.704;2022-09-09T12:18:25;3.07;;;1.00;;
27161;SDS011;54464;50.558;9.704;2022-09-09T12:24:09;3.87;;;0.80;;
27161;SDS011;54464;50.558;9.704;2022-09-09T12:26:42;3.40;;;1.10;;
27161;SDS011;54464;50.558;9.704;2022-09-09T12:32:30;2.80;;;1.13;;
27161;SDS011;54464;50.558;9.704;2022-09-09T12:34:58;2.40;;;0.70;;
27161;SDS011;54464;50.558;9.704;2022-09-09T12:37:41;2.90;;;0.93;;
27161;SDS011;54464;50.558;9.704;2022-09-09T12:40:36;2.90;;;0.87;;
27161;SDS011;54464;50.558;9.704;2022-09-09T12:43:17;2.60;;;0.93;;
27161;SDS011;54464;50.558;9.704;2022-09-09T12:45:44;3.10;;;0.83;;
27161;SDS011;54464;50.558;9.704;2022-09-09T12:48:11;3.23;;;0.80;;
27161;SDS011;54464;50.558;9.704;2022-09-09T12:50:50;3.00;;;0.80;;
27161;SDS011;54464;50.558;9.704;2022-09-09T12:53:24;2.03;;;0.70;;
27161;SDS011;54464;50.558;9.704;2022-09-09T12:55:57;1.30;;;0.57;;
27161;SDS011;54464;50.558;9.704;2022-09-09T12:58:25;1.63;;;0.60;;
27161;SDS011;54464;50.558;9.704;2022-09-09T13:00:54;1.40;;;0.60;;
27161;SDS011;54464;50.558;9.704;2022-09-09T13:03:22;1.07;;;0.60;;
27161;SDS011;54464;50.558;9.704;2022-09-09T13:05:50;1.47;;;0.70;;
27161;SDS011;54464;50.558;9.704;2022-09-09T13:08:18;1.57;;;0.40;;
27161;SDS011;54464;50.558;9.704;2022-09-09T13:10:49;2.07;;;0.80;;
27161;SDS011;54464;50.558;9.704;2022-09-09T13:13:22;1.43;;;0.60;;
27161;SDS011;54464;50.558;9.704;2022-09-09T13:15:51;1.33;;;0.57;;
27161;SDS011;54464;50.558;9.704;2022-09-09T13:18:21;1.80;;;0.63;;
27161;SDS011;54464;50.558;9.704;2022-09-09T13:20:48;2.10;;;0.50;;
27161;SDS011;54464;50.558;9.704;2022-09-09T13:23:16;2.17;;;0.70;;
27161;SDS011;54464;50.558;9.704;2022-09-09T13:25:55;3.90;;;0.93;;
27161;SDS011;54464;50.558;9.704;2022-09-09T13:28:24;1.90;;;0.60;;
27161;SDS011;54464;50.558;9.704;2022-09-09T13:31:04;1.97;;;0.60;;
27161;SDS011;54464;50.558;9.704;2022-09-09T13:33:45;3.57;;;1.00;;
27161;SDS011;54464;50.558;9.704;2022-09-09T13:36:11;2.87;;;0.80;;
27161;SDS011;54464;50.558;9.704;2022-09-09T13:41:36;1.97;;;0.80;;
27161;SDS011;54464;50.558;9.704;2022-09-09T13:44:26;3.97;;;0.93;;
27161;SDS011;54464;50.558;9.704;2022-09-09T13:47:00;2.77;;;0.77;;
27161;SDS011;54464;50.558;9.704;2022-09-09T13:49:30;3.37;;;0.90;;
27161;SDS011;54464;50.558;9.704;2022-09-09T13:52:08;2.30;;;0.80;;
27161;SDS011;54464;50.558;9.704;2022-09-09T13:54:35;3.90;;;1.00;;
27161;SDS011;54464;50.558;9.704;2022-09-09T13:57:01;2.00;;;0.80;;
27161;SDS011;54464;50.558;9.704;2022-09-09T13:59:27;2.57;;;0.83;;
27161;SDS011;54464;50.558;9.704;2022-09-09T14:01:53;2.00;;;0.60;;
27161;SDS011;54464;50.558;9.704;2022-09-09T14:04:19;1.70;;;0.80;;
27161;SDS011;54464;50.558;9.704;2022-09-09T14:06:48;3.67;;;1.10;;
27161;SDS011;54464;50.558;9.704;2022-09-09T14:09:15;1.63;;;0.63;;
27161;SDS011;54464;50.558;9.704;2022-09-09T14:11:43;1.93;;;0.60;;
27161;SDS011;54464;50.558;9.704;2022-09-09T14:14:10;1.97;;;0.80;;
27161;SDS011;54464;50.558;9.704;2022-09-09T14:16:36;2.40;;;0.80;;
27161;SDS011;54464;50.558;9.704;2022-09-09T14:19:02;3.57;;;1.13;;
27161;SDS011;54464;50.558;9.704;2022-09-09T14:21:28;3.77;;;1.67;;
27161;SDS011;54464;50.558;9.704;2022-09-09T14:23:54;3.27;;;0.83;;
27161;SDS011;54464;50.558;9.704;2022-09-09T14:26:20;3.07;;;0.93;;
27161;SDS011;54464;50.558;9.704;2022-09-09T14:28:47;2.87;;;1.00;;
27161;SDS011;54464;50.558;9.704;2022-09-09T14:31:13;2.43;;;0.60;;
27161;SDS011;54464;50.558;9.704;2022-09-09T14:33:39;1.97;;;0.70;;
27161;SDS011;54464;50.558;9.704;2022-09-09T14:36:05;2.67;;;0.90;;
27161;SDS011;54464;50.558;9.704;2022-09-09T14:38:33;3.43;;;1.00;;
27161;SDS011;54464;50.558;9.704;2022-09-09T14:41:03;2.40;;;0.80;;
27161;SDS011;54464;50.558;9.704;2022-09-09T14:43:29;2.73;;;0.57;;
27161;SDS011;54464;50.558;9.704;2022-09-09T14:45:58;2.80;;;0.80;;
27161;SDS011;54464;50.558;9.704;2022-09-09T14:48:32;2.37;;;0.90;;
27161;SDS011;54464;50.558;9.704;2022-09-09T14:51:04;3.70;;;0.90;;
27161;SDS011;54464;50.558;9.704;2022-09-09T14:53:31;4.90;;;0.90;;
27161;SDS011;54464;50.558;9.704;2022-09-09T14:56:04;2.10;;;0.70;;
27161;SDS011;54464;50.558;9.704;2022-09-09T14:58:34;1.93;;;0.90;;
27161;SDS011;54464;50.558;9.704;2022-09-09T15:01:07;2.00;;;0.87;;
27161;SDS011;54464;50.558;9.704;2022-09-09T15:03:35;3.23;;;0.90;;
27161;SDS011;54464;50.558;9.704;2022-09-09T15:06:12;2.83;;;0.87;;
27161;SDS011;54464;50.558;9.704;2022-09-09T15:08:39;3.17;;;1.00;;
27161;SDS011;54464;50.558;9.704;2022-09-09T15:11:08;2.80;;;0.90;;
27161;SDS011;54464;50.558;9.704;2022-09-09T15:13:35;2.20;;;1.00;;
27161;SDS011;54464;50.558;9.704;2022-09-09T15:16:05;4.97;;;1.20;;
27161;SDS011;54464;50.558;9.704;2022-09-09T15:18:32;1.70;;;0.80;;
27161;SDS011;54464;50.558;9.704;2022-09-09T15:20:58;2.87;;;0.83;;
27161;SDS011;54464;50.558;9.704;2022-09-09T15:23:26;1.90;;;0.70;;
27161;SDS011;54464;50.558;9.704;2022-09-09T15:25:52;2.43;;;0.70;;
27161;SDS011;54464;50.558;9.704;2022-09-09T15:28:19;2.87;;;0.97;;
27161;SDS011;54464;50.558;9.704;2022-09-09T15:30:51;1.53;;;0.70;;
27161;SDS011;54464;50.558;9.704;2022-09-09T15:33:19;1.60;;;0.60;;
27161;SDS011;54464;50.558;9.704;2022-09-09T15:35:46;3.07;;;1.00;;
27161;SDS011;54464;50.558;9.704;2022-09-09T15:38:12;2.43;;;0.80;;
27161;SDS011;54464;50.558;9.704;2022-09-09T15:40:41;2.70;;;0.57;;
27161;SDS011;54464;50.558;9.704;2022-09-09T15:43:07;2.20;;;0.60;;
27161;SDS011;54464;50.558;9.704;2022-09-09T15:45:34;3.17;;;0.83;;
27161;SDS011;54464;50.558;9.704;2022-09-09T15:48:00;2.77;;;0.63;;
27161;SDS011;54464;50.558;9.704;2022-09-09T15:50:27;2.47;;;0.67;;
27161;SDS011;54464;50.558;9.704;2022-09-09T15:52:57;1.93;;;0.63;;
27161;SDS011;54464;50.558;9.704;2022-09-09T15:55:26;2.07;;;0.60;;
27161;SDS011;54464;50.558;9.704;2022-09-09T15:57:52;2.63;;;0.90;;
27161;SDS011;54464;50.558;9.704;2022-09-09T16:00:18;2.53;;;0.70;;
27161;SDS011;54464;50.558;9.704;2022-09-09T16:02:46;1.97;;;0.60;;
27161;SDS011;54464;50.558;9.704;2022-09-09T16:05:12;2.37;;;0.73;;
27161;SDS011;54464;50.558;9.704;2022-09-09T16:07:38;2.47;;;0.70;;
27161;SDS011;54464;50.558;9.704;2022-09-09T16:10:04;1.20;;;0.70;;
27161;SDS011;54464;50.558;9.704;2022-09-09T16:12:30;3.60;;;0.63;;
27161;SDS011;54464;50.558;9.704;2022-09-09T16:14:56;2.27;;;1.00;;
27161;SDS011;54464;50.558;9.704;2022-09-09T16:17:22;2.33;;;0.80;;
27161;SDS011;54464;50.558;9.704;2022-09-09T16:19:47;1.40;;;0.90;;
27161;SDS011;54464;50.558;9.704;2022-09-09T16:22:13;1.67;;;0.60;;
27161;SDS011;54464;50.558;9.704;2022-09-09T16:24:40;2.53;;;0.90;;
27161;SDS011;54464;50.558;9.704;2022-09-09T16:27:06;1.47;;;0.80;;
27161;SDS011;54464;50.558;9.704;2022-09-09T16:29:32;3.47;;;0.80;;
27161;SDS011;54464;50.558;9.704;2022-09-09T16:31:57;1.00;;;0.60;;
27161;SDS011;54464;50.558;9.704;2022-09-09T16:34:25;2.47;;;1.13;;
27161;SDS011;54464;50.558;9.704;2022-09-09T16:36:50;2.03;;;0.80;;
27161;SDS011;54464;50.558;9.704;2022-09-09T16:39:18;2.97;;;0.97;;
27161;SDS011;54464;50.558;9.704;2022-09-09T16:41:45;1.40;;;0.40;;
27161;SDS011;54464;50.558;9.704;2022-09-09T16:44:13;1.97;;;0.87;;
27161;SDS011;54464;50.558;9.704;2022-09-09T16:46:41;2.13;;;0.70;;
27161;SDS011;54464;50.558;9.704;2022-09-09T16:49:09;1.37;;;0.57;;
27161;SDS011;54464;50.558;9.704;2022-09-09T16:51:37;4.23;;;1.30;;
27161;SDS011;54464;50.558;9.704;2022-09-09T16:54:06;2.23;;;0.80;;
27161;SDS011;54464;50.558;9.704;2022-09-09T16:56:33;3.00;;;1.00;;
27161;SDS011;54464;50.558;9.704;2022-09-09T16:59:07;2.50;;;0.93;;
27161;SDS011;54464;50.558;9.704;2022-09-09T17:01:36;3.57;;;1.17;;
27161;SDS011;54464;50.558;9.704;2022-09-09T17:04:04;3.00;;;0.90;;
27161;SDS011;54464;50.558;9.704;2022-09-09T17:06:32;1.97;;;1.10;;
27161;SDS011;54464;50.558;9.704;2022-09-09T17:09:04;3.60;;;1.00;;
27161;SDS011;54464;50.558;9.704;2022-09-09T17:11:32;3.10;;;1.07;;
27161;SDS011;54464;50.558;9.704;2022-09-09T17:13:59;1.23;;;0.80;;
27161;SDS011;54464;50.558;9.704;2022-09-09T17:16:26;2.77;;;1.10;;
27161;SDS011;54464;50.558;9.704;2022-09-09T17:18:54;2.43;;;0.83;;